Bethel, AK

4:19 PM AKDT on July 09, 2014 (GMT -0800)
Kwethluk AP, Kwethluk, AK (PFKW) Elev 26 ft | 60.79 °N, 161.44 °W | Change Station

Current weather conditions updated 23 minutes ago

Overcast
Overcast
60 °F
Feels Like 60 °F
N
14
Wind Variable Wind from South
Gusts 22 mph

Tomorrow is forecast to be nearly the same temperature as today. Showers possible.

Today
High -- | Low -- °F
--% Chance of Precip.
Yesterday
High -- | Low -- °F
Precip. -- in
5:30 AM 0:10 AM
Waxing Gibbous, 91% visible
Pressure 29.86 in
Visibility 10.0 miles
Clouds Mostly Cloudy 3000 ft
Mostly Cloudy 4000 ft
Overcast 6000 ft
Dew Point 48 °F
Humidity 64%
Rainfall 0.29 in
Snow Depth Not available.
UV 2 out of 12
Pollen Not available.
Air Quality Not available.
Flu Activity Sporadic
METAR PFKW 092356Z AUTO 19012G19KT 10SM BKN030 BKN040 OVC060 16/09 A2985 RMK AO2 RAB22E42 SLP109 P0000 60005 T01560089 10161 20106 56006 $

More Conditions Fewer Conditions

Pressure 29.86 in
Visibility 10.0 miles
Clouds Mostly Cloudy 3000 ft
Mostly Cloudy 4000 ft
Overcast 6000 ft
Dew Point 48 °F
Humidity 64%
Rainfall 0.29 in
Snow Depth Not available.
UV 2 out of 12
Pollen Not available.
Air Quality Not available.
Flu Activity Sporadic
METAR PFKW 092356Z AUTO 19012G19KT 10SM BKN030 BKN040 OVC060 16/09 A2985 RMK AO2 RAB22E42 SLP109 P0000 60005 T01560089 10161 20106 56006 $

More Conditions Fewer Conditions

10-Day Weather Forecast

Almanac

Astronomy

Jul. 09, 2014 Rise Set
Actual Time 5:30 AM AKDT 12:10 AM AKDT
Civil Twilight 3:49 AM AKDT 1:48 AM AKDT
Nautical Twilight Sun does not rise Sun does not rise
Astronomical Twilight Sun does not rise Sun does not rise
Moon 9:08 PM AKDT (7/9) 3:30 AM AKDT (7/9)
Length of Visible Light 21h 59m
Length of Day
18h 40m
Tomorrow will be 3m 20s shorter.
Waxing Gibbous, 91% of the Moon is Illuminated
Today
Waxing Gibbous
Jul 12
Full
Jul 18
Last Quarter
Jul 26
New
Aug 3
First Quarter

Today's Extremes

State Highs State Lows

Community

WunderPhotos

Upload Photos

1,732,004 photos uploaded!

Nearby

Snow Depth

Station Depth Elevation
Rocky Point 2 in 500 ft
Mcneil Canyon 1 in 1320 ft
Port Graham 0 in 300 ft
MF Bradley River 22 in 2300 ft
Point Mackenzie 1 in 200 ft

Earthquake Activity

City Distance Mag. Time & Date
No recent earthquake activity has been reported nearby.
Minimum magnitude displayed is 2.5.

Coastal Water Temperatures

Place Temperature
No Stations Reporting

Nearby Weather Stations

There are no personal weather stations in this area.